sensor_id;sensor_type;location;lat;lon;timestamp;temperature;humidity
33803;DHT22;20110;53.120;5.786;2023-12-04T00:01:21;4.50;99.90
33803;DHT22;20110;53.120;5.786;2023-12-04T00:03:47;4.50;99.90
33803;DHT22;20110;53.120;5.786;2023-12-04T00:06:13;4.50;99.90
33803;DHT22;20110;53.120;5.786;2023-12-04T00:08:38;5.10;99.90
33803;DHT22;20110;53.120;5.786;2023-12-04T00:11:05;4.50;99.90
33803;DHT22;20110;53.120;5.786;2023-12-04T00:13:31;4.50;99.90
33803;DHT22;20110;53.120;5.786;2023-12-04T00:15:57;4.50;99.90
33803;DHT22;20110;53.120;5.786;2023-12-04T00:18:23;4.70;99.90
33803;DHT22;20110;53.120;5.786;2023-12-04T00:20:48;4.50;99.90
33803;DHT22;20110;53.120;5.786;2023-12-04T00:23:14;4.60;99.90
33803;DHT22;20110;53.120;5.786;2023-12-04T00:25:40;4.60;99.90
33803;DHT22;20110;53.120;5.786;2023-12-04T00:28:05;4.60;99.90
33803;DHT22;20110;53.120;5.786;2023-12-04T00:30:31;4.50;99.90
33803;DHT22;20110;53.120;5.786;2023-12-04T00:32:57;4.50;99.90
33803;DHT22;20110;53.120;5.786;2023-12-04T00:35:23;4.50;99.90
33803;DHT22;20110;53.120;5.786;2023-12-04T00:37:48;4.50;99.90
33803;DHT22;20110;53.120;5.786;2023-12-04T00:40:14;4.50;99.90
33803;DHT22;20110;53.120;5.786;2023-12-04T00:42:40;4.50;99.90
33803;DHT22;20110;53.120;5.786;2023-12-04T00:45:06;4.50;99.90
33803;DHT22;20110;53.120;5.786;2023-12-04T00:47:32;4.50;99.90
33803;DHT22;20110;53.120;5.786;2023-12-04T00:49:57;4.60;99.90
33803;DHT22;20110;53.120;5.786;2023-12-04T00:52:23;4.60;99.90
33803;DHT22;20110;53.120;5.786;2023-12-04T00:54:49;4.60;99.90
33803;DHT22;20110;53.120;5.786;2023-12-04T00:57:15;4.60;99.90
33803;DHT22;20110;53.120;5.786;2023-12-04T00:59:41;4.60;99.90
33803;DHT22;20110;53.120;5.786;2023-12-04T01:02:06;4.80;99.90
33803;DHT22;20110;53.120;5.786;2023-12-04T01:04:33;4.70;99.90
33803;DHT22;20110;53.120;5.786;2023-12-04T01:06:58;4.70;99.90
33803;DHT22;20110;53.120;5.786;2023-12-04T01:09:24;4.60;99.90
33803;DHT22;20110;53.120;5.786;2023-12-04T01:11:53;4.60;99.90
33803;DHT22;20110;53.120;5.786;2023-12-04T01:14:19;4.60;99.90
33803;DHT22;20110;53.120;5.786;2023-12-04T01:16:46;4.50;99.90
33803;DHT22;20110;53.120;5.786;2023-12-04T01:19:12;5.20;99.90
33803;DHT22;20110;53.120;5.786;2023-12-04T01:21:38;4.60;99.90
33803;DHT22;20110;53.120;5.786;2023-12-04T01:24:03;4.60;99.90
33803;DHT22;20110;53.120;5.786;2023-12-04T01:26:29;4.70;99.90
33803;DHT22;20110;53.120;5.786;2023-12-04T01:28:55;4.60;99.90
33803;DHT22;20110;53.120;5.786;2023-12-04T01:31:21;4.60;99.90
33803;DHT22;20110;53.120;5.786;2023-12-04T01:33:47;4.70;99.90
33803;DHT22;20110;53.120;5.786;2023-12-04T01:36:13;4.70;99.90
33803;DHT22;20110;53.120;5.786;2023-12-04T01:38:38;4.80;99.90
33803;DHT22;20110;53.120;5.786;2023-12-04T01:41:04;4.70;99.90
33803;DHT22;20110;53.120;5.786;2023-12-04T01:43:30;4.80;99.90
33803;DHT22;20110;53.120;5.786;2023-12-04T01:45:57;4.70;99.90
33803;DHT22;20110;53.120;5.786;2023-12-04T01:48:24;4.80;99.90
33803;DHT22;20110;53.120;5.786;2023-12-04T01:50:51;4.70;99.90
33803;DHT22;20110;53.120;5.786;2023-12-04T01:53:17;4.70;99.90
33803;DHT22;20110;53.120;5.786;2023-12-04T01:55:43;4.70;99.90
33803;DHT22;20110;53.120;5.786;2023-12-04T01:58:09;4.70;99.90
33803;DHT22;20110;53.120;5.786;2023-12-04T02:00:35;4.70;99.90
33803;DHT22;20110;53.120;5.786;2023-12-04T02:03:01;4.70;99.90
33803;DHT22;20110;53.120;5.786;2023-12-04T02:05:27;4.70;99.90
33803;DHT22;20110;53.120;5.786;2023-12-04T02:07:54;4.70;99.90
33803;DHT22;20110;53.120;5.786;2023-12-04T02:10:21;4.70;99.90
33803;DHT22;20110;53.120;5.786;2023-12-04T02:12:47;4.70;99.90
33803;DHT22;20110;53.120;5.786;2023-12-04T02:15:14;4.70;99.90
33803;DHT22;20110;53.120;5.786;2023-12-04T02:17:40;4.70;99.90
33803;DHT22;20110;53.120;5.786;2023-12-04T02:20:07;4.80;99.90
33803;DHT22;20110;53.120;5.786;2023-12-04T02:22:33;4.80;99.90
33803;DHT22;20110;53.120;5.786;2023-12-04T02:24:59;4.70;99.90
33803;DHT22;20110;53.120;5.786;2023-12-04T02:27:35;4.70;99.90
33803;DHT22;20110;53.120;5.786;2023-12-04T02:30:02;4.70;99.90
33803;DHT22;20110;53.120;5.786;2023-12-04T02:32:33;4.70;99.90
33803;DHT22;20110;53.120;5.786;2023-12-04T02:35:04;4.80;99.90
33803;DHT22;20110;53.120;5.786;2023-12-04T02:37:32;4.70;99.90
33803;DHT22;20110;53.120;5.786;2023-12-04T02:39:59;4.80;99.90
33803;DHT22;20110;53.120;5.786;2023-12-04T02:42:25;4.80;99.90
33803;DHT22;20110;53.120;5.786;2023-12-04T02:44:51;4.80;99.90
33803;DHT22;20110;53.120;5.786;2023-12-04T02:47:17;4.80;99.90
33803;DHT22;20110;53.120;5.786;2023-12-04T02:49:43;4.80;99.90
33803;DHT22;20110;53.120;5.786;2023-12-04T02:52:09;4.70;99.90
33803;DHT22;20110;53.120;5.786;2023-12-04T02:54:34;4.70;99.90
33803;DHT22;20110;53.120;5.786;2023-12-04T02:57:00;4.70;99.90
33803;DHT22;20110;53.120;5.786;2023-12-04T02:59:26;4.80;99.90
33803;DHT22;20110;53.120;5.786;2023-12-04T03:01:52;4.70;99.90
33803;DHT22;20110;53.120;5.786;2023-12-04T03:04:19;4.80;99.90
33803;DHT22;20110;53.120;5.786;2023-12-04T03:06:45;4.90;99.90
33803;DHT22;20110;53.120;5.786;2023-12-04T03:09:11;5.10;99.90
33803;DHT22;20110;53.120;5.786;2023-12-04T03:11:39;4.70;99.90
33803;DHT22;20110;53.120;5.786;2023-12-04T03:14:06;4.70;99.90
33803;DHT22;20110;53.120;5.786;2023-12-04T03:16:34;4.70;99.90
33803;DHT22;20110;53.120;5.786;2023-12-04T03:19:00;4.70;99.90
33803;DHT22;20110;53.120;5.786;2023-12-04T03:21:28;4.70;99.90
33803;DHT22;20110;53.120;5.786;2023-12-04T03:23:54;4.70;99.90
33803;DHT22;20110;53.120;5.786;2023-12-04T03:26:20;4.90;99.90
33803;DHT22;20110;53.120;5.786;2023-12-04T03:28:46;4.70;99.90
33803;DHT22;20110;53.120;5.786;2023-12-04T03:31:12;4.80;99.90
33803;DHT22;20110;53.120;5.786;2023-12-04T03:33:38;4.70;99.90
33803;DHT22;20110;53.120;5.786;2023-12-04T03:36:04;4.80;99.90
33803;DHT22;20110;53.120;5.786;2023-12-04T03:38:30;4.80;99.90
33803;DHT22;20110;53.120;5.786;2023-12-04T03:40:56;4.80;99.90
33803;DHT22;20110;53.120;5.786;2023-12-04T03:43:22;4.80;99.90
33803;DHT22;20110;53.120;5.786;2023-12-04T03:45:48;4.80;99.90
33803;DHT22;20110;53.120;5.786;2023-12-04T03:48:13;4.80;99.90
33803;DHT22;20110;53.120;5.786;2023-12-04T03:50:39;4.80;99.90
33803;DHT22;20110;53.120;5.786;2023-12-04T03:53:05;4.80;99.90
33803;DHT22;20110;53.120;5.786;2023-12-04T03:55:31;4.70;99.90
33803;DHT22;20110;53.120;5.786;2023-12-04T03:57:56;4.70;99.90
33803;DHT22;20110;53.120;5.786;2023-12-04T04:00:23;4.70;99.90
33803;DHT22;20110;53.120;5.786;2023-12-04T04:02:48;4.70;99.90
33803;DHT22;20110;53.120;5.786;2023-12-04T04:05:15;4.60;99.90
33803;DHT22;20110;53.120;5.786;2023-12-04T04:07:40;4.50;99.90
33803;DHT22;20110;53.120;5.786;2023-12-04T04:10:06;4.70;99.90
33803;DHT22;20110;53.120;5.786;2023-12-04T04:12:33;4.60;99.90
33803;DHT22;20110;53.120;5.786;2023-12-04T04:14:59;4.70;99.90
33803;DHT22;20110;53.120;5.786;2023-12-04T04:17:24;4.70;99.90
33803;DHT22;20110;53.120;5.786;2023-12-04T04:19:54;4.80;99.90
33803;DHT22;20110;53.120;5.786;2023-12-04T04:22:20;4.70;99.90
33803;DHT22;20110;53.120;5.786;2023-12-04T04:24:47;4.80;99.90
33803;DHT22;20110;53.120;5.786;2023-12-04T04:27:13;4.90;99.90
33803;DHT22;20110;53.120;5.786;2023-12-04T04:29:39;4.90;99.90
33803;DHT22;20110;53.120;5.786;2023-12-04T04:32:05;4.90;99.90
33803;DHT22;20110;53.120;5.786;2023-12-04T04:34:31;4.80;99.90
33803;DHT22;20110;53.120;5.786;2023-12-04T04:36:57;4.80;99.90
33803;DHT22;20110;53.120;5.786;2023-12-04T04:39:23;4.80;99.90
33803;DHT22;20110;53.120;5.786;2023-12-04T04:41:48;4.80;99.90
33803;DHT22;20110;53.120;5.786;2023-12-04T04:44:14;4.80;99.90
33803;DHT22;20110;53.120;5.786;2023-12-04T04:46:40;4.80;99.90
33803;DHT22;20110;53.120;5.786;2023-12-04T04:49:05;4.80;99.90
33803;DHT22;20110;53.120;5.786;2023-12-04T04:51:32;4.70;99.90
33803;DHT22;20110;53.120;5.786;2023-12-04T04:54:01;4.80;99.90
33803;DHT22;20110;53.120;5.786;2023-12-04T04:56:27;4.80;99.90
33803;DHT22;20110;53.120;5.786;2023-12-04T04:58:53;4.70;99.90
33803;DHT22;20110;53.120;5.786;2023-12-04T05:01:19;4.80;99.90
33803;DHT22;20110;53.120;5.786;2023-12-04T05:03:45;4.80;99.90
33803;DHT22;20110;53.120;5.786;2023-12-04T05:06:10;4.80;99.90
33803;DHT22;20110;53.120;5.786;2023-12-04T05:08:36;4.90;99.90
33803;DHT22;20110;53.120;5.786;2023-12-04T05:11:02;4.90;99.90
33803;DHT22;20110;53.120;5.786;2023-12-04T05:13:28;4.90;99.90
33803;DHT22;20110;53.120;5.786;2023-12-04T05:15:54;4.90;99.90
33803;DHT22;20110;53.120;5.786;2023-12-04T05:18:19;4.90;99.90
33803;DHT22;20110;53.120;5.786;2023-12-04T05:20:45;4.90;99.90
33803;DHT22;20110;53.120;5.786;2023-12-04T05:23:11;4.40;99.90
33803;DHT22;20110;53.120;5.786;2023-12-04T05:25:36;4.90;99.90
33803;DHT22;20110;53.120;5.786;2023-12-04T05:28:03;4.80;99.90
33803;DHT22;20110;53.120;5.786;2023-12-04T05:30:29;4.80;99.90
33803;DHT22;20110;53.120;5.786;2023-12-04T05:32:55;4.80;99.90
33803;DHT22;20110;53.120;5.786;2023-12-04T05:35:20;4.80;99.90
33803;DHT22;20110;53.120;5.786;2023-12-04T05:37:46;4.90;99.90
33803;DHT22;20110;53.120;5.786;2023-12-04T05:40:12;4.90;99.90
33803;DHT22;20110;53.120;5.786;2023-12-04T05:42:37;4.90;99.90
33803;DHT22;20110;53.120;5.786;2023-12-04T05:45:03;4.90;99.90
33803;DHT22;20110;53.120;5.786;2023-12-04T05:47:30;4.80;99.90
33803;DHT22;20110;53.120;5.786;2023-12-04T05:49:55;4.90;99.90
33803;DHT22;20110;53.120;5.786;2023-12-04T05:52:21;4.70;99.90
33803;DHT22;20110;53.120;5.786;2023-12-04T05:54:47;4.90;99.90
33803;DHT22;20110;53.120;5.786;2023-12-04T05:57:12;5.00;99.90
33803;DHT22;20110;53.120;5.786;2023-12-04T05:59:38;5.00;99.90
33803;DHT22;20110;53.120;5.786;2023-12-04T06:02:04;5.10;99.90
33803;DHT22;20110;53.120;5.786;2023-12-04T06:04:30;5.00;99.90
33803;DHT22;20110;53.120;5.786;2023-12-04T06:06:55;5.00;99.90
33803;DHT22;20110;53.120;5.786;2023-12-04T06:09:21;4.90;99.90
33803;DHT22;20110;53.120;5.786;2023-12-04T06:11:47;4.90;99.90
33803;DHT22;20110;53.120;5.786;2023-12-04T06:14:12;4.90;99.90
33803;DHT22;20110;53.120;5.786;2023-12-04T06:16:38;4.90;99.90
33803;DHT22;20110;53.120;5.786;2023-12-04T06:19:04;5.00;99.90
33803;DHT22;20110;53.120;5.786;2023-12-04T06:21:30;4.90;99.90
33803;DHT22;20110;53.120;5.786;2023-12-04T06:23:56;4.90;99.90
33803;DHT22;20110;53.120;5.786;2023-12-04T06:26:22;4.80;99.90
33803;DHT22;20110;53.120;5.786;2023-12-04T06:28:49;4.80;99.90
33803;DHT22;20110;53.120;5.786;2023-12-04T06:31:15;4.90;99.90
33803;DHT22;20110;53.120;5.786;2023-12-04T06:33:41;4.90;99.90
33803;DHT22;20110;53.120;5.786;2023-12-04T06:36:08;4.90;99.90
33803;DHT22;20110;53.120;5.786;2023-12-04T06:38:39;5.00;99.90
33803;DHT22;20110;53.120;5.786;2023-12-04T06:41:14;4.90;99.90
33803;DHT22;20110;53.120;5.786;2023-12-04T06:43:47;5.00;99.90
33803;DHT22;20110;53.120;5.786;2023-12-04T06:46:20;5.10;99.90
33803;DHT22;20110;53.120;5.786;2023-12-04T06:48:59;5.20;99.90
33803;DHT22;20110;53.120;5.786;2023-12-04T06:51:33;5.10;99.90
33803;DHT22;20110;53.120;5.786;2023-12-04T06:54:10;4.90;99.90
33803;DHT22;20110;53.120;5.786;2023-12-04T06:56:38;4.90;99.90
33803;DHT22;20110;53.120;5.786;2023-12-04T06:59:06;4.90;99.90
33803;DHT22;20110;53.120;5.786;2023-12-04T07:01:34;4.70;99.90
33803;DHT22;20110;53.120;5.786;2023-12-04T07:04:03;4.90;99.90
33803;DHT22;20110;53.120;5.786;2023-12-04T07:06:40;5.00;99.90
33803;DHT22;20110;53.120;5.786;2023-12-04T07:09:19;5.00;99.90
33803;DHT22;20110;53.120;5.786;2023-12-04T07:11:53;4.90;99.90
33803;DHT22;20110;53.120;5.786;2023-12-04T07:14:19;5.00;99.90
33803;DHT22;20110;53.120;5.786;2023-12-04T07:16:45;4.90;99.90
33803;DHT22;20110;53.120;5.786;2023-12-04T07:19:11;4.90;99.90
33803;DHT22;20110;53.120;5.786;2023-12-04T07:21:38;4.90;99.90
33803;DHT22;20110;53.120;5.786;2023-12-04T07:24:04;4.90;99.90
33803;DHT22;20110;53.120;5.786;2023-12-04T07:26:30;5.00;99.90
33803;DHT22;20110;53.120;5.786;2023-12-04T07:28:56;5.00;99.90
33803;DHT22;20110;53.120;5.786;2023-12-04T07:31:22;5.60;99.90
33803;DHT22;20110;53.120;5.786;2023-12-04T07:33:47;5.00;99.90
33803;DHT22;20110;53.120;5.786;2023-12-04T07:36:13;5.00;99.90
33803;DHT22;20110;53.120;5.786;2023-12-04T07:38:39;5.10;99.90
33803;DHT22;20110;53.120;5.786;2023-12-04T07:41:05;5.10;99.90
33803;DHT22;20110;53.120;5.786;2023-12-04T07:43:31;5.10;99.90
33803;DHT22;20110;53.120;5.786;2023-12-04T07:45:56;5.00;99.90
33803;DHT22;20110;53.120;5.786;2023-12-04T07:48:23;5.10;99.90
33803;DHT22;20110;53.120;5.786;2023-12-04T07:50:48;5.00;99.90
33803;DHT22;20110;53.120;5.786;2023-12-04T07:53:14;5.00;99.90
33803;DHT22;20110;53.120;5.786;2023-12-04T07:55:40;5.00;99.90
33803;DHT22;20110;53.120;5.786;2023-12-04T07:58:06;5.00;99.90
33803;DHT22;20110;53.120;5.786;2023-12-04T08:00:31;5.00;99.90
33803;DHT22;20110;53.120;5.786;2023-12-04T08:02:58;5.10;99.90
33803;DHT22;20110;53.120;5.786;2023-12-04T08:05:23;5.00;99.90
33803;DHT22;20110;53.120;5.786;2023-12-04T08:07:49;5.00;99.90
33803;DHT22;20110;53.120;5.786;2023-12-04T08:10:15;5.00;99.90
33803;DHT22;20110;53.120;5.786;2023-12-04T08:12:43;5.00;99.90
33803;DHT22;20110;53.120;5.786;2023-12-04T08:15:10;4.90;99.90
33803;DHT22;20110;53.120;5.786;2023-12-04T08:17:36;5.00;99.90
33803;DHT22;20110;53.120;5.786;2023-12-04T08:20:02;5.10;99.90
33803;DHT22;20110;53.120;5.786;2023-12-04T08:22:29;5.10;99.90
33803;DHT22;20110;53.120;5.786;2023-12-04T08:24:55;5.10;99.90
33803;DHT22;20110;53.120;5.786;2023-12-04T08:27:20;5.20;99.90
33803;DHT22;20110;53.120;5.786;2023-12-04T08:29:46;5.20;99.90
33803;DHT22;20110;53.120;5.786;2023-12-04T08:32:12;5.30;99.90
33803;DHT22;20110;53.120;5.786;2023-12-04T08:34:38;5.30;99.90
33803;DHT22;20110;53.120;5.786;2023-12-04T08:37:03;5.20;99.90
33803;DHT22;20110;53.120;5.786;2023-12-04T08:39:29;5.20;99.90
33803;DHT22;20110;53.120;5.786;2023-12-04T08:41:55;5.20;99.90
33803;DHT22;20110;53.120;5.786;2023-12-04T08:44:20;5.20;99.90
33803;DHT22;20110;53.120;5.786;2023-12-04T08:46:46;5.20;99.90
33803;DHT22;20110;53.120;5.786;2023-12-04T08:49:12;5.10;99.90
33803;DHT22;20110;53.120;5.786;2023-12-04T08:51:37;5.20;99.90
33803;DHT22;20110;53.120;5.786;2023-12-04T08:54:03;5.10;99.90
33803;DHT22;20110;53.120;5.786;2023-12-04T08:56:30;5.10;99.90
33803;DHT22;20110;53.120;5.786;2023-12-04T08:58:56;5.20;99.90
33803;DHT22;20110;53.120;5.786;2023-12-04T09:01:24;5.20;99.90
33803;DHT22;20110;53.120;5.786;2023-12-04T09:03:52;5.10;99.90
33803;DHT22;20110;53.120;5.786;2023-12-04T09:06:17;5.10;99.90
33803;DHT22;20110;53.120;5.786;2023-12-04T09:08:43;5.00;99.90
33803;DHT22;20110;53.120;5.786;2023-12-04T09:11:09;5.00;99.90
33803;DHT22;20110;53.120;5.786;2023-12-04T09:13:35;5.00;99.90
33803;DHT22;20110;53.120;5.786;2023-12-04T09:16:01;5.00;72.80
33803;DHT22;20110;53.120;5.786;2023-12-04T09:18:27;5.10;99.90
33803;DHT22;20110;53.120;5.786;2023-12-04T09:20:53;5.10;99.90
33803;DHT22;20110;53.120;5.786;2023-12-04T09:23:19;5.10;99.90
33803;DHT22;20110;53.120;5.786;2023-12-04T09:25:45;5.10;43.60
33803;DHT22;20110;53.120;5.786;2023-12-04T09:28:10;5.20;99.90
33803;DHT22;20110;53.120;5.786;2023-12-04T09:30:47;5.10;1.00
33803;DHT22;20110;53.120;5.786;2023-12-04T09:33:13;5.20;94.90
33803;DHT22;20110;53.120;5.786;2023-12-04T09:35:41;5.20;1.00
33803;DHT22;20110;53.120;5.786;2023-12-04T09:38:08;5.30;54.70
33803;DHT22;20110;53.120;5.786;2023-12-04T09:40:36;5.30;1.00
33803;DHT22;20110;53.120;5.786;2023-12-04T09:43:05;5.20;1.00
33803;DHT22;20110;53.120;5.786;2023-12-04T09:48:07;5.20;1.00
33803;DHT22;20110;53.120;5.786;2023-12-04T09:50:35;5.30;1.00
33803;DHT22;20110;53.120;5.786;2023-12-04T09:53:01;5.20;99.90
33803;DHT22;20110;53.120;5.786;2023-12-04T09:55:28;5.30;99.90
33803;DHT22;20110;53.120;5.786;2023-12-04T10:24:03;5.80;2.00
33803;DHT22;20110;53.120;5.786;2023-12-04T10:26:29;5.80;1.00
33803;DHT22;20110;53.120;5.786;2023-12-04T10:28:58;5.90;99.90
33803;DHT22;20110;53.120;5.786;2023-12-04T10:31:34;5.90;1.00
33803;DHT22;20110;53.120;5.786;2023-12-04T10:34:01;5.90;99.90
33803;DHT22;20110;53.120;5.786;2023-12-04T10:36:29;5.90;99.90
33803;DHT22;20110;53.120;5.786;2023-12-04T10:39:00;5.90;99.90
33803;DHT22;20110;53.120;5.786;2023-12-04T10:41:26;5.90;99.90
33803;DHT22;20110;53.120;5.786;2023-12-04T10:43:55;5.90;1.00
33803;DHT22;20110;53.120;5.786;2023-12-04T10:46:24;5.90;1.00
33803;DHT22;20110;53.120;5.786;2023-12-04T10:48:51;5.90;1.00
33803;DHT22;20110;53.120;5.786;2023-12-04T10:51:18;5.90;99.90
33803;DHT22;20110;53.120;5.786;2023-12-04T10:53:45;5.90;99.90
33803;DHT22;20110;53.120;5.786;2023-12-04T10:56:14;5.90;99.90
33803;DHT22;20110;53.120;5.786;2023-12-04T10:58:50;5.90;99.90
33803;DHT22;20110;53.120;5.786;2023-12-04T11:01:18;6.10;99.90
33803;DHT22;20110;53.120;5.786;2023-12-04T11:03:48;6.30;99.90
33803;DHT22;20110;53.120;5.786;2023-12-04T11:06:22;6.10;99.90
33803;DHT22;20110;53.120;5.786;2023-12-04T11:08:51;6.00;99.90
33803;DHT22;20110;53.120;5.786;2023-12-04T11:11:22;5.90;99.90
33803;DHT22;20110;53.120;5.786;2023-12-04T11:13:53;5.80;1.00
33803;DHT22;20110;53.120;5.786;2023-12-04T11:22:03;5.80;99.90
33803;DHT22;20110;53.120;5.786;2023-12-04T11:24:31;5.70;99.90
33803;DHT22;20110;53.120;5.786;2023-12-04T11:26:58;5.70;99.90
33803;DHT22;20110;53.120;5.786;2023-12-04T11:29:24;5.80;99.90
33803;DHT22;20110;53.120;5.786;2023-12-04T11:31:50;5.80;1.00
33803;DHT22;20110;53.120;5.786;2023-12-04T11:34:16;5.80;99.90
33803;DHT22;20110;53.120;5.786;2023-12-04T11:36:42;5.80;99.90
33803;DHT22;20110;53.120;5.786;2023-12-04T11:39:09;5.80;99.90
33803;DHT22;20110;53.120;5.786;2023-12-04T11:41:36;5.90;1.00
33803;DHT22;20110;53.120;5.786;2023-12-04T11:44:02;5.70;1.00
33803;DHT22;20110;53.120;5.786;2023-12-04T11:46:29;5.50;99.90
33803;DHT22;20110;53.120;5.786;2023-12-04T11:51:47;5.50;1.00
33803;DHT22;20110;53.120;5.786;2023-12-04T11:54:17;5.30;99.90
33803;DHT22;20110;53.120;5.786;2023-12-04T11:59:49;5.50;1.00
33803;DHT22;20110;53.120;5.786;2023-12-04T12:02:15;5.60;1.00
33803;DHT22;20110;53.120;5.786;2023-12-04T12:04:42;5.60;1.00
33803;DHT22;20110;53.120;5.786;2023-12-04T12:07:08;5.60;99.90
33803;DHT22;20110;53.120;5.786;2023-12-04T12:09:35;5.60;1.00
33803;DHT22;20110;53.120;5.786;2023-12-04T12:12:02;5.80;99.90
33803;DHT22;20110;53.120;5.786;2023-12-04T12:14:28;5.90;99.90
33803;DHT22;20110;53.120;5.786;2023-12-04T12:16:55;5.80;99.90
33803;DHT22;20110;53.120;5.786;2023-12-04T12:19:24;5.70;99.90
33803;DHT22;20110;53.120;5.786;2023-12-04T12:21:49;5.80;99.90
33803;DHT22;20110;53.120;5.786;2023-12-04T12:24:17;5.70;45.80
33803;DHT22;20110;53.120;5.786;2023-12-04T12:26:44;5.70;99.90
33803;DHT22;20110;53.120;5.786;2023-12-04T12:29:10;5.60;99.90
33803;DHT22;20110;53.120;5.786;2023-12-04T12:31:37;5.70;99.90
33803;DHT22;20110;53.120;5.786;2023-12-04T12:34:03;5.50;99.90
33803;DHT22;20110;53.120;5.786;2023-12-04T12:36:29;5.60;99.90
33803;DHT22;20110;53.120;5.786;2023-12-04T12:38:59;5.50;99.90
33803;DHT22;20110;53.120;5.786;2023-12-04T12:41:25;5.50;99.90
33803;DHT22;20110;53.120;5.786;2023-12-04T12:43:52;5.70;99.90
33803;DHT22;20110;53.120;5.786;2023-12-04T12:46:18;5.80;99.90
33803;DHT22;20110;53.120;5.786;2023-12-04T12:48:46;5.90;1.00
33803;DHT22;20110;53.120;5.786;2023-12-04T12:51:12;7.00;99.90
33803;DHT22;20110;53.120;5.786;2023-12-04T12:53:38;6.40;99.90
33803;DHT22;20110;53.120;5.786;2023-12-04T12:56:04;5.80;99.90
33803;DHT22;20110;53.120;5.786;2023-12-04T12:58:31;5.40;99.90
33803;DHT22;20110;53.120;5.786;2023-12-04T13:00:57;4.80;1.00
33803;DHT22;20110;53.120;5.786;2023-12-04T13:03:22;5.20;1.00
33803;DHT22;20110;53.120;5.786;2023-12-04T13:05:48;5.00;1.00
33803;DHT22;20110;53.120;5.786;2023-12-04T13:08:14;5.10;1.00
33803;DHT22;20110;53.120;5.786;2023-12-04T13:10:43;4.90;99.90
33803;DHT22;20110;53.120;5.786;2023-12-04T13:13:09;5.00;95.00
33803;DHT22;20110;53.120;5.786;2023-12-04T13:15:36;5.10;1.00
33803;DHT22;20110;53.120;5.786;2023-12-04T13:18:02;5.20;1.00
33803;DHT22;20110;53.120;5.786;2023-12-04T13:20:28;5.20;95.10
33803;DHT22;20110;53.120;5.786;2023-12-04T13:22:54;5.10;1.00
33803;DHT22;20110;53.120;5.786;2023-12-04T13:25:19;5.00;1.00
33803;DHT22;20110;53.120;5.786;2023-12-04T13:27:46;5.20;99.90
33803;DHT22;20110;53.120;5.786;2023-12-04T13:30:12;5.20;1.00
33803;DHT22;20110;53.120;5.786;2023-12-04T13:32:38;5.20;82.00
33803;DHT22;20110;53.120;5.786;2023-12-04T13:35:04;5.20;99.90
33803;DHT22;20110;53.120;5.786;2023-12-04T13:37:30;5.60;99.90
33803;DHT22;20110;53.120;5.786;2023-12-04T13:40:02;5.40;1.00
33803;DHT22;20110;53.120;5.786;2023-12-04T13:42:40;5.20;31.20
33803;DHT22;20110;53.120;5.786;2023-12-04T13:45:25;5.00;28.60
33803;DHT22;20110;53.120;5.786;2023-12-04T13:47:51;4.90;99.90
33803;DHT22;20110;53.120;5.786;2023-12-04T13:50:18;4.90;99.90
33803;DHT22;20110;53.120;5.786;2023-12-04T13:52:44;4.90;99.90
33803;DHT22;20110;53.120;5.786;2023-12-04T13:55:10;4.90;99.90
33803;DHT22;20110;53.120;5.786;2023-12-04T13:58:02;5.00;99.90
33803;DHT22;20110;53.120;5.786;2023-12-04T14:00:28;5.20;1.00
33803;DHT22;20110;53.120;5.786;2023-12-04T14:02:54;5.30;99.90
33803;DHT22;20110;53.120;5.786;2023-12-04T14:05:25;5.30;99.90
33803;DHT22;20110;53.120;5.786;2023-12-04T14:07:51;5.40;99.90
33803;DHT22;20110;53.120;5.786;2023-12-04T14:10:17;5.40;99.90
33803;DHT22;20110;53.120;5.786;2023-12-04T14:12:43;5.50;99.90
33803;DHT22;20110;53.120;5.786;2023-12-04T14:15:09;5.40;99.90
33803;DHT22;20110;53.120;5.786;2023-12-04T14:17:35;5.30;39.30
33803;DHT22;20110;53.120;5.786;2023-12-04T14:20:01;5.40;99.90
33803;DHT22;20110;53.120;5.786;2023-12-04T14:22:36;5.20;20.30
33803;DHT22;20110;53.120;5.786;2023-12-04T14:25:02;5.30;41.30
33803;DHT22;20110;53.120;5.786;2023-12-04T14:27:29;5.20;91.30
33803;DHT22;20110;53.120;5.786;2023-12-04T14:29:55;5.10;1.00
33803;DHT22;20110;53.120;5.786;2023-12-04T14:32:21;5.10;20.60
33803;DHT22;20110;53.120;5.786;2023-12-04T14:34:46;4.90;1.00
33803;DHT22;20110;53.120;5.786;2023-12-04T14:37:12;5.10;99.90
33803;DHT22;20110;53.120;5.786;2023-12-04T14:39:38;5.20;99.90
33803;DHT22;20110;53.120;5.786;2023-12-04T14:42:03;5.20;55.80
33803;DHT22;20110;53.120;5.786;2023-12-04T14:44:29;5.20;25.90
33803;DHT22;20110;53.120;5.786;2023-12-04T14:46:55;5.10;9.60
33803;DHT22;20110;53.120;5.786;2023-12-04T14:49:20;5.20;99.90
33803;DHT22;20110;53.120;5.786;2023-12-04T14:51:46;5.20;99.90
33803;DHT22;20110;53.120;5.786;2023-12-04T14:54:13;5.20;99.90
33803;DHT22;20110;53.120;5.786;2023-12-04T14:57:03;5.70;99.90
33803;DHT22;20110;53.120;5.786;2023-12-04T14:59:45;5.40;1.00
33803;DHT22;20110;53.120;5.786;2023-12-04T15:02:22;4.90;99.90
33803;DHT22;20110;53.120;5.786;2023-12-04T15:05:06;4.60;99.90
33803;DHT22;20110;53.120;5.786;2023-12-04T15:07:35;4.40;99.90
33803;DHT22;20110;53.120;5.786;2023-12-04T15:10:19;4.30;99.90
33803;DHT22;20110;53.120;5.786;2023-12-04T15:13:03;4.30;99.90
33803;DHT22;20110;53.120;5.786;2023-12-04T15:15:31;4.20;99.90
33803;DHT22;20110;53.120;5.786;2023-12-04T15:18:16;4.10;99.90
33803;DHT22;20110;53.120;5.786;2023-12-04T15:21:02;3.80;99.90
33803;DHT22;20110;53.120;5.786;2023-12-04T15:23:29;3.90;15.40
33803;DHT22;20110;53.120;5.786;2023-12-04T15:25:55;3.90;1.00
33803;DHT22;20110;53.120;5.786;2023-12-04T15:28:21;3.80;1.00
33803;DHT22;20110;53.120;5.786;2023-12-04T15:30:48;3.90;1.00
33803;DHT22;20110;53.120;5.786;2023-12-04T15:33:15;4.10;99.90
33803;DHT22;20110;53.120;5.786;2023-12-04T15:35:41;4.10;99.90
33803;DHT22;20110;53.120;5.786;2023-12-04T15:38:07;3.90;1.00
33803;DHT22;20110;53.120;5.786;2023-12-04T15:40:34;3.90;22.70
33803;DHT22;20110;53.120;5.786;2023-12-04T15:43:00;4.40;96.80
33803;DHT22;20110;53.120;5.786;2023-12-04T15:45:27;3.90;17.90
33803;DHT22;20110;53.120;5.786;2023-12-04T15:47:53;3.90;95.70
33803;DHT22;20110;53.120;5.786;2023-12-04T15:50:19;3.80;70.10
33803;DHT22;20110;53.120;5.786;2023-12-04T15:52:48;4.90;99.90
33803;DHT22;20110;53.120;5.786;2023-12-04T15:55:14;3.90;99.90
33803;DHT22;20110;53.120;5.786;2023-12-04T15:57:40;3.90;1.00
33803;DHT22;20110;53.120;5.786;2023-12-04T16:00:06;4.00;51.90
33803;DHT22;20110;53.120;5.786;2023-12-04T16:02:33;4.40;99.90
33803;DHT22;20110;53.120;5.786;2023-12-04T16:04:58;5.30;99.90
33803;DHT22;20110;53.120;5.786;2023-12-04T16:07:24;5.10;99.90
33803;DHT22;20110;53.120;5.786;2023-12-04T16:09:50;4.80;99.90
33803;DHT22;20110;53.120;5.786;2023-12-04T16:12:15;4.70;11.00
33803;DHT22;20110;53.120;5.786;2023-12-04T16:14:41;4.20;1.00
33803;DHT22;20110;53.120;5.786;2023-12-04T16:17:07;4.50;1.00
33803;DHT22;20110;53.120;5.786;2023-12-04T16:19:33;4.40;1.00
33803;DHT22;20110;53.120;5.786;2023-12-04T16:21:59;4.30;99.90
33803;DHT22;20110;53.120;5.786;2023-12-04T16:24:26;4.20;99.90
33803;DHT22;20110;53.120;5.786;2023-12-04T16:26:52;4.10;99.90